createdAt,value
2019-03-26T00:00:23.282Z,32.40
2019-03-26T00:05:29.134Z,29.23
2019-03-26T00:10:34.744Z,28.20
2019-03-26T00:15:40.261Z,32.50
2019-03-26T00:20:45.765Z,28.57
2019-03-26T00:25:51.733Z,22.07
2019-03-26T00:30:57.222Z,21.57
2019-03-26T00:36:03.161Z,23.40
2019-03-26T00:41:08.704Z,26.30
2019-03-26T00:46:14.272Z,24.67
2019-03-26T00:51:19.868Z,22.60
2019-03-26T00:56:25.394Z,23.80
2019-03-26T01:01:31.124Z,21.50
2019-03-26T01:06:36.862Z,20.60
2019-03-26T01:11:42.353Z,23.13
2019-03-26T01:16:47.870Z,23.03
2019-03-26T01:21:54.402Z,27.67
2019-03-26T01:27:00.122Z,31.80
2019-03-26T01:32:05.865Z,31.77
2019-03-26T01:37:11.398Z,33.40
2019-03-26T01:42:16.929Z,26.70
2019-03-26T01:47:22.587Z,27.60
2019-03-26T01:52:28.382Z,30.33
2019-03-26T01:57:33.849Z,31.83
2019-03-26T02:02:39.464Z,34.20
2019-03-26T02:07:44.980Z,28.10
2019-03-26T02:12:50.714Z,35.57
2019-03-26T02:17:56.324Z,28.23
2019-03-26T02:23:01.889Z,30.77
2019-03-26T02:28:07.456Z,30.70
2019-03-26T02:33:13.045Z,26.33
2019-03-26T02:38:18.581Z,25.73
2019-03-26T02:43:24.296Z,23.23
2019-03-26T02:48:29.822Z,26.63
2019-03-26T02:53:36.605Z,24.80
2019-03-26T02:58:42.342Z,28.37
2019-03-26T03:03:47.869Z,26.07
2019-03-26T03:08:53.403Z,34.03
2019-03-26T03:14:00.135Z,38.10
2019-03-26T03:19:05.703Z,31.20
2019-03-26T03:24:14.166Z,31.93
2019-03-26T03:29:18.723Z,29.83
2019-03-26T03:34:24.785Z,30.20
2019-03-26T03:39:30.160Z,31.57
2019-03-26T03:44:35.724Z,38.27
2019-03-26T03:49:41.646Z,34.80
2019-03-26T03:54:47.718Z,34.77
2019-03-26T03:59:53.582Z,38.00
2019-03-26T04:04:59.033Z,37.07
2019-03-26T04:10:04.961Z,44.07
2019-03-26T04:15:10.409Z,38.30
2019-03-26T04:20:15.936Z,38.27
2019-03-26T04:25:21.382Z,33.20
2019-03-26T04:30:31.532Z,38.40
2019-03-26T04:35:37.076Z,39.53
2019-03-26T04:40:42.996Z,33.47
2019-03-26T04:45:48.589Z,43.93
2019-03-26T04:50:54.562Z,42.87
2019-03-26T04:56:00.112Z,42.70
2019-03-26T05:01:05.660Z,54.00
2019-03-26T05:06:11.190Z,52.90
2019-03-26T05:11:16.682Z,50.53
2019-03-26T05:16:22.219Z,49.97
2019-03-26T05:21:27.720Z,48.63
2019-03-26T05:26:33.267Z,46.47
2019-03-26T05:31:39.343Z,47.77
2019-03-26T05:36:51.180Z,51.07
2019-03-26T05:41:52.620Z,49.60
2019-03-26T05:47:01.453Z,53.00
2019-03-26T05:52:05.812Z,53.27
2019-03-26T05:57:11.436Z,47.60
2019-03-26T06:02:18.101Z,46.97
2019-03-26T06:07:23.914Z,51.60
2019-03-26T06:12:32.103Z,43.27
2019-03-26T06:17:37.867Z,45.07
2019-03-26T06:22:43.432Z,37.63
2019-03-26T06:27:49.046Z,38.13
2019-03-26T06:32:54.662Z,40.33
2019-03-26T06:38:00.177Z,46.00
2019-03-26T06:43:05.793Z,44.20
2019-03-26T06:48:11.536Z,47.33
2019-03-26T06:53:17.063Z,41.10
2019-03-26T06:58:22.701Z,44.77
2019-03-26T07:03:28.272Z,42.13
2019-03-26T07:08:34.999Z,37.93
2019-03-26T07:13:40.617Z,31.63
2019-03-26T07:18:46.177Z,30.10
2019-03-26T07:23:52.135Z,28.33
2019-03-26T07:28:58.244Z,31.77
2019-03-26T07:34:07.021Z,25.60
2019-03-26T07:39:11.070Z,27.13
2019-03-26T07:44:16.661Z,24.43
2019-03-26T07:49:24.227Z,25.03
2019-03-26T07:54:32.630Z,28.97
2019-03-26T07:59:37.534Z,26.80
2019-03-26T08:04:43.295Z,25.27
2019-03-26T08:09:50.612Z,23.03
2019-03-26T08:14:59.415Z,24.10
2019-03-26T08:20:05.374Z,23.30
2019-03-26T08:25:11.630Z,18.80
2019-03-26T08:30:17.361Z,17.93
2019-03-26T08:35:23.084Z,17.80
2019-03-26T08:40:29.030Z,18.10
2019-03-26T08:45:35.866Z,21.30
2019-03-26T08:50:41.564Z,20.20
2019-03-26T08:55:47.070Z,26.03
2019-03-26T09:00:52.834Z,23.37
2019-03-26T09:05:58.632Z,19.33
2019-03-26T09:11:04.516Z,21.90
2019-03-26T09:16:10.031Z,17.93
2019-03-26T09:21:15.796Z,21.37
2019-03-26T09:26:21.496Z,25.07
2019-03-26T09:31:27.568Z,24.57
2019-03-26T09:36:34.319Z,22.47
2019-03-26T09:41:40.060Z,21.40
2019-03-26T09:46:45.685Z,22.27
2019-03-26T09:51:51.276Z,22.60
2019-03-26T09:56:57.716Z,17.90
2019-03-26T10:02:03.251Z,15.43
2019-03-26T10:07:20.759Z,15.50
2019-03-26T10:12:18.036Z,19.33
2019-03-26T10:17:25.756Z,20.03
2019-03-26T10:22:31.402Z,18.40
2019-03-26T10:27:36.961Z,15.00
2019-03-26T10:32:43.586Z,19.30
2019-03-26T10:37:49.418Z,15.40
2019-03-26T10:42:59.084Z,16.13
2019-03-26T10:48:04.978Z,17.57
2019-03-26T10:53:10.956Z,18.37
2019-03-26T10:58:17.715Z,20.23
2019-03-26T11:03:23.363Z,17.87
2019-03-26T11:08:29.043Z,16.80
2019-03-26T11:13:34.984Z,14.23
2019-03-26T11:18:40.690Z,16.30
2019-03-26T11:23:46.340Z,17.97
2019-03-26T11:28:51.938Z,14.73
2019-03-26T11:33:57.770Z,14.90
2019-03-26T11:39:05.094Z,16.13
2019-03-26T11:44:11.188Z,17.73
2019-03-26T11:49:17.820Z,14.77
2019-03-26T11:54:23.896Z,16.97
2019-03-26T11:59:30.048Z,15.43
2019-03-26T12:04:36.176Z,13.77
2019-03-26T12:09:46.539Z,15.00
2019-03-26T12:15:04.736Z,21.37
2019-03-26T12:20:10.631Z,25.20
2019-03-26T12:25:16.336Z,15.23
2019-03-26T12:30:38.301Z,16.87
2019-03-26T12:35:44.072Z,13.17
2019-03-26T12:40:50.448Z,14.70
2019-03-26T12:45:56.352Z,13.90
2019-03-26T12:51:03.030Z,13.77
2019-03-26T12:56:08.850Z,12.93
2019-03-26T13:01:14.572Z,14.50
2019-03-26T13:06:20.148Z,14.53
2019-03-26T13:11:26.151Z,14.67
2019-03-26T13:16:31.784Z,14.90
2019-03-26T13:21:37.726Z,18.03
2019-03-26T13:26:44.546Z,15.63
2019-03-26T13:31:50.096Z,16.97
2019-03-26T13:36:55.871Z,15.83
2019-03-26T13:42:01.744Z,15.27
2019-03-26T13:47:12.391Z,13.23
2019-03-26T13:52:17.953Z,15.13
2019-03-26T13:57:23.742Z,15.87
2019-03-26T14:02:29.322Z,17.37
2019-03-26T14:07:35.010Z,16.80
2019-03-26T14:12:40.644Z,17.77
2019-03-26T14:17:46.286Z,18.83
2019-03-26T14:22:51.840Z,14.63
2019-03-26T14:27:57.496Z,13.90
2019-03-26T14:33:03.058Z,19.37
2019-03-26T14:38:08.852Z,17.27
2019-03-26T14:43:14.417Z,18.00
2019-03-26T14:48:20.139Z,17.57
2019-03-26T14:53:25.736Z,15.47
2019-03-26T14:58:33.448Z,14.77
2019-03-26T15:03:39.217Z,14.77
2019-03-26T15:08:44.937Z,17.87
2019-03-26T15:13:50.841Z,19.57
2019-03-26T15:18:56.414Z,16.90
2019-03-26T15:24:01.921Z,13.63
2019-03-26T15:29:08.658Z,16.50
2019-03-26T15:34:19.280Z,16.10
2019-03-26T15:39:25.552Z,20.30
2019-03-26T15:44:31.316Z,16.23
2019-03-26T15:49:37.000Z,16.90
2019-03-26T15:54:42.894Z,13.50
2019-03-26T15:59:48.643Z,13.90
2019-03-26T16:04:54.600Z,14.43
2019-03-26T16:10:00.468Z,21.10
2019-03-26T16:15:06.986Z,18.00
2019-03-26T16:20:12.738Z,15.17
2019-03-26T16:25:18.600Z,14.70
2019-03-26T16:30:24.292Z,15.23
2019-03-26T16:35:29.942Z,18.07
2019-03-26T16:40:35.597Z,20.43
2019-03-26T16:45:41.136Z,19.73
2019-03-26T16:50:46.787Z,19.37
2019-03-26T16:55:52.435Z,20.20
2019-03-26T17:00:58.230Z,21.27
2019-03-26T17:06:04.251Z,23.00
2019-03-26T17:11:09.946Z,23.03
2019-03-26T17:16:15.617Z,25.03
2019-03-26T17:21:21.233Z,25.93
2019-03-26T17:26:26.938Z,21.07
2019-03-26T17:31:32.748Z,22.57
2019-03-26T17:36:38.674Z,18.77
2019-03-26T17:41:44.412Z,19.83
2019-03-26T17:46:50.116Z,23.00
2019-03-26T17:51:55.919Z,22.00
2019-03-26T17:57:02.292Z,19.37
2019-03-26T18:02:07.935Z,19.27
2019-03-26T18:07:13.568Z,20.17
2019-03-26T18:12:30.126Z,26.03
2019-03-26T18:17:26.820Z,25.83
2019-03-26T18:22:32.936Z,19.77
2019-03-26T18:27:38.392Z,16.70
2019-03-26T18:32:44.044Z,18.87
2019-03-26T18:37:49.926Z,19.80
2019-03-26T18:42:55.572Z,16.43
2019-03-26T18:48:02.548Z,18.10
2019-03-26T18:53:09.319Z,17.40
2019-03-26T18:58:15.038Z,18.07
2019-03-26T19:03:21.711Z,18.60
2019-03-26T19:08:27.257Z,19.57
2019-03-26T19:13:33.127Z,19.80
2019-03-26T19:18:38.714Z,18.50
2019-03-26T19:23:45.506Z,18.20
2019-03-26T19:28:56.562Z,19.83
2019-03-26T19:34:02.268Z,19.97
2019-03-26T19:39:08.791Z,19.47
2019-03-26T19:44:14.922Z,16.60
2019-03-26T19:49:20.518Z,18.80
2019-03-26T19:54:26.212Z,19.10
2019-03-26T19:59:31.964Z,20.80
2019-03-26T20:04:37.541Z,24.23
2019-03-26T20:09:43.120Z,21.57
2019-03-26T20:14:52.074Z,20.50
2019-03-26T20:19:57.967Z,24.10
2019-03-26T20:25:03.680Z,24.77
2019-03-26T20:30:09.893Z,23.77
2019-03-26T20:35:16.103Z,24.90
2019-03-26T20:40:21.970Z,22.33
2019-03-26T20:45:27.783Z,21.50
2019-03-26T20:50:33.251Z,27.00
2019-03-26T20:55:39.002Z,25.17
2019-03-26T21:00:44.628Z,23.77
2019-03-26T21:05:50.584Z,22.13
2019-03-26T21:10:56.119Z,20.83
2019-03-26T21:16:01.789Z,24.10
2019-03-26T21:21:07.349Z,21.50
2019-03-26T21:26:13.290Z,22.10
2019-03-26T21:31:19.450Z,21.93
2019-03-26T21:36:26.911Z,22.63
2019-03-26T21:41:32.624Z,20.43
2019-03-26T21:46:38.505Z,21.87
2019-03-26T21:51:44.547Z,23.80
2019-03-26T21:56:50.178Z,28.37
2019-03-26T22:01:55.885Z,32.23
2019-03-26T22:07:01.635Z,29.37
2019-03-26T22:12:07.402Z,33.03
2019-03-26T22:17:13.126Z,36.93
2019-03-26T22:22:18.655Z,33.07
2019-03-26T22:27:24.523Z,34.97
2019-03-26T22:32:30.027Z,36.73
2019-03-26T22:37:35.681Z,28.13
2019-03-26T22:42:41.769Z,29.83
2019-03-26T22:47:47.289Z,34.90
2019-03-26T22:52:52.883Z,30.93
2019-03-26T22:57:58.632Z,27.80
2019-03-26T23:03:04.782Z,21.63
2019-03-26T23:08:10.352Z,25.13
2019-03-26T23:13:16.151Z,29.33
2019-03-26T23:18:21.899Z,28.33
2019-03-26T23:23:27.871Z,23.53
2019-03-26T23:28:34.123Z,24.50
2019-03-26T23:33:39.735Z,27.97
2019-03-26T23:38:45.419Z,26.20
2019-03-26T23:43:50.993Z,24.17
2019-03-26T23:48:56.624Z,25.23
2019-03-26T23:54:03.348Z,27.07
2019-03-26T23:59:08.839Z,22.97
